sensor_id;sensor_type;location;lat;lon;timestamp;P1;durP1;ratioP1;P2;durP2;ratioP2
495;SDS011;39559;48.630;9.162;2023-02-04T00:00:08;5.97;;;5.38;;
495;SDS011;39559;48.630;9.162;2023-02-04T00:03:01;6.50;;;5.70;;
495;SDS011;39559;48.630;9.162;2023-02-04T00:05:26;5.93;;;5.33;;
495;SDS011;39559;48.630;9.162;2023-02-04T00:07:52;6.10;;;5.50;;
495;SDS011;39559;48.630;9.162;2023-02-04T00:10:17;5.90;;;5.13;;
495;SDS011;39559;48.630;9.162;2023-02-04T00:12:43;5.30;;;4.70;;
495;SDS011;39559;48.630;9.162;2023-02-04T00:15:08;5.07;;;4.57;;
495;SDS011;39559;48.630;9.162;2023-02-04T00:19:06;5.40;;;4.90;;
495;SDS011;39559;48.630;9.162;2023-02-04T00:21:31;5.50;;;5.00;;
495;SDS011;39559;48.630;9.162;2023-02-04T00:23:57;5.60;;;5.07;;
495;SDS011;39559;48.630;9.162;2023-02-04T00:26:22;6.70;;;5.30;;
495;SDS011;39559;48.630;9.162;2023-02-04T00:28:48;5.20;;;4.63;;
495;SDS011;39559;48.630;9.162;2023-02-04T00:31:13;5.23;;;4.67;;
495;SDS011;39559;48.630;9.162;2023-02-04T00:33:39;5.70;;;4.83;;
495;SDS011;39559;48.630;9.162;2023-02-04T00:36:07;5.50;;;5.00;;
495;SDS011;39559;48.630;9.162;2023-02-04T00:38:32;5.20;;;4.70;;
495;SDS011;39559;48.630;9.162;2023-02-04T00:43:06;5.05;;;4.55;;
495;SDS011;39559;48.630;9.162;2023-02-04T00:45:32;5.47;;;4.30;;
495;SDS011;39559;48.630;9.162;2023-02-04T00:47:57;5.53;;;4.60;;
495;SDS011;39559;48.630;9.162;2023-02-04T00:50:23;6.63;;;4.93;;
495;SDS011;39559;48.630;9.162;2023-02-04T00:52:48;5.20;;;4.70;;
495;SDS011;39559;48.630;9.162;2023-02-04T00:55:14;6.27;;;4.90;;
495;SDS011;39559;48.630;9.162;2023-02-04T00:57:44;5.82;;;4.40;;
495;SDS011;39559;48.630;9.162;2023-02-04T01:00:12;6.50;;;4.70;;
495;SDS011;39559;48.630;9.162;2023-02-04T01:02:38;4.90;;;4.47;;
495;SDS011;39559;48.630;9.162;2023-02-04T01:07:05;4.15;;;3.75;;
495;SDS011;39559;48.630;9.162;2023-02-04T01:09:30;5.93;;;3.63;;
495;SDS011;39559;48.630;9.162;2023-02-04T01:11:56;4.47;;;4.00;;
495;SDS011;39559;48.630;9.162;2023-02-04T01:14:21;4.03;;;3.53;;
495;SDS011;39559;48.630;9.162;2023-02-04T01:16:47;4.37;;;3.97;;
495;SDS011;39559;48.630;9.162;2023-02-04T01:19:13;3.97;;;3.57;;
495;SDS011;39559;48.630;9.162;2023-02-04T01:21:38;4.00;;;3.53;;
495;SDS011;39559;48.630;9.162;2023-02-04T01:24:04;3.77;;;3.43;;
495;SDS011;39559;48.630;9.162;2023-02-04T01:26:29;4.17;;;3.77;;
495;SDS011;39559;48.630;9.162;2023-02-04T01:31:05;3.53;;;3.22;;
495;SDS011;39559;48.630;9.162;2023-02-04T01:33:31;3.77;;;3.47;;
495;SDS011;39559;48.630;9.162;2023-02-04T01:35:56;3.30;;;3.00;;
495;SDS011;39559;48.630;9.162;2023-02-04T01:38:22;3.60;;;3.30;;
495;SDS011;39559;48.630;9.162;2023-02-04T01:40:47;3.83;;;3.53;;
495;SDS011;39559;48.630;9.162;2023-02-04T01:43:13;3.93;;;3.37;;
495;SDS011;39559;48.630;9.162;2023-02-04T01:45:39;3.10;;;2.90;;
495;SDS011;39559;48.630;9.162;2023-02-04T01:48:04;3.23;;;2.93;;
495;SDS011;39559;48.630;9.162;2023-02-04T01:50:31;4.30;;;3.17;;
495;SDS011;39559;48.630;9.162;2023-02-04T01:55:15;4.88;;;3.83;;
495;SDS011;39559;48.630;9.162;2023-02-04T01:57:43;3.85;;;3.45;;
495;SDS011;39559;48.630;9.162;2023-02-04T02:00:16;3.30;;;3.00;;
495;SDS011;39559;48.630;9.162;2023-02-04T02:02:49;3.65;;;3.35;;
495;SDS011;39559;48.630;9.162;2023-02-04T02:05:17;2.90;;;2.60;;
495;SDS011;39559;48.630;9.162;2023-02-04T02:07:47;2.85;;;2.30;;
495;SDS011;39559;48.630;9.162;2023-02-04T02:10:14;3.08;;;2.10;;
495;SDS011;39559;48.630;9.162;2023-02-04T02:12:42;2.42;;;2.22;;
495;SDS011;39559;48.630;9.162;2023-02-04T02:15:09;3.10;;;2.53;;
495;SDS011;39559;48.630;9.162;2023-02-04T02:19:05;2.30;;;2.10;;
495;SDS011;39559;48.630;9.162;2023-02-04T02:21:57;2.97;;;2.25;;
495;SDS011;39559;48.630;9.162;2023-02-04T02:24:31;2.65;;;2.28;;
495;SDS011;39559;48.630;9.162;2023-02-04T02:26:59;3.30;;;2.95;;
495;SDS011;39559;48.630;9.162;2023-02-04T02:29:27;7.18;;;3.20;;
495;SDS011;39559;48.630;9.162;2023-02-04T02:31:54;3.97;;;2.40;;
495;SDS011;39559;48.630;9.162;2023-02-04T02:34:26;3.65;;;2.40;;
495;SDS011;39559;48.630;9.162;2023-02-04T02:36:53;2.60;;;2.40;;
495;SDS011;39559;48.630;9.162;2023-02-04T02:39:19;3.03;;;2.50;;
495;SDS011;39559;48.630;9.162;2023-02-04T02:43:04;4.32;;;2.45;;
495;SDS011;39559;48.630;9.162;2023-02-04T02:45:30;4.30;;;2.30;;
495;SDS011;39559;48.630;9.162;2023-02-04T02:47:57;2.30;;;2.10;;
495;SDS011;39559;48.630;9.162;2023-02-04T02:50:25;3.67;;;2.28;;
495;SDS011;39559;48.630;9.162;2023-02-04T02:52:53;4.75;;;2.75;;
495;SDS011;39559;48.630;9.162;2023-02-04T02:55:20;2.85;;;2.35;;
495;SDS011;39559;48.630;9.162;2023-02-04T02:57:48;2.40;;;2.20;;
495;SDS011;39559;48.630;9.162;2023-02-04T03:00:19;2.70;;;2.33;;
495;SDS011;39559;48.630;9.162;2023-02-04T03:07:17;3.25;;;2.42;;
495;SDS011;39559;48.630;9.162;2023-02-04T03:09:45;3.35;;;2.33;;
495;SDS011;39559;48.630;9.162;2023-02-04T03:12:11;4.57;;;2.20;;
495;SDS011;39559;48.630;9.162;2023-02-04T03:14:36;2.73;;;2.40;;
495;SDS011;39559;48.630;9.162;2023-02-04T03:17:03;3.28;;;2.20;;
495;SDS011;39559;48.630;9.162;2023-02-04T03:19:31;3.83;;;2.30;;
495;SDS011;39559;48.630;9.162;2023-02-04T03:21:57;3.78;;;2.47;;
495;SDS011;39559;48.630;9.162;2023-02-04T03:24:23;4.10;;;2.50;;
495;SDS011;39559;48.630;9.162;2023-02-04T03:26:49;2.60;;;2.23;;
495;SDS011;39559;48.630;9.162;2023-02-04T03:31:02;2.88;;;2.42;;
495;SDS011;39559;48.630;9.162;2023-02-04T03:33:28;5.27;;;2.87;;
495;SDS011;39559;48.630;9.162;2023-02-04T03:35:56;2.53;;;2.33;;
495;SDS011;39559;48.630;9.162;2023-02-04T03:38:22;2.75;;;2.47;;
495;SDS011;39559;48.630;9.162;2023-02-04T03:40:47;3.50;;;2.53;;
495;SDS011;39559;48.630;9.162;2023-02-04T03:43:13;3.90;;;2.30;;
495;SDS011;39559;48.630;9.162;2023-02-04T03:45:39;3.00;;;2.60;;
495;SDS011;39559;48.630;9.162;2023-02-04T03:48:04;3.23;;;2.97;;
495;SDS011;39559;48.630;9.162;2023-02-04T03:50:30;8.30;;;2.60;;
495;SDS011;39559;48.630;9.162;2023-02-04T03:55:01;5.70;;;2.67;;
495;SDS011;39559;48.630;9.162;2023-02-04T03:57:27;3.20;;;2.60;;
495;SDS011;39559;48.630;9.162;2023-02-04T03:59:53;4.77;;;2.80;;
495;SDS011;39559;48.630;9.162;2023-02-04T04:02:18;3.20;;;2.67;;
495;SDS011;39559;48.630;9.162;2023-02-04T04:04:44;3.30;;;3.00;;
495;SDS011;39559;48.630;9.162;2023-02-04T04:07:09;7.03;;;3.00;;
495;SDS011;39559;48.630;9.162;2023-02-04T04:09:35;3.47;;;2.80;;
495;SDS011;39559;48.630;9.162;2023-02-04T04:12:00;4.87;;;2.90;;
495;SDS011;39559;48.630;9.162;2023-02-04T04:14:27;3.88;;;2.50;;
495;SDS011;39559;48.630;9.162;2023-02-04T04:19:02;4.90;;;2.85;;
495;SDS011;39559;48.630;9.162;2023-02-04T04:21:27;3.43;;;3.07;;
495;SDS011;39559;48.630;9.162;2023-02-04T04:23:53;6.80;;;3.50;;
495;SDS011;39559;48.630;9.162;2023-02-04T04:26:18;3.67;;;3.00;;
495;SDS011;39559;48.630;9.162;2023-02-04T04:28:44;4.87;;;3.10;;
495;SDS011;39559;48.630;9.162;2023-02-04T04:31:09;6.63;;;3.50;;
495;SDS011;39559;48.630;9.162;2023-02-04T04:33:35;3.47;;;3.17;;
495;SDS011;39559;48.630;9.162;2023-02-04T04:36:00;4.37;;;3.90;;
495;SDS011;39559;48.630;9.162;2023-02-04T04:38:26;6.40;;;2.93;;
495;SDS011;39559;48.630;9.162;2023-02-04T04:43:02;6.15;;;3.95;;
495;SDS011;39559;48.630;9.162;2023-02-04T04:45:27;3.50;;;3.20;;
495;SDS011;39559;48.630;9.162;2023-02-04T04:47:53;3.30;;;3.00;;
495;SDS011;39559;48.630;9.162;2023-02-04T04:50:18;4.33;;;3.33;;
495;SDS011;39559;48.630;9.162;2023-02-04T04:52:44;8.90;;;4.23;;
495;SDS011;39559;48.630;9.162;2023-02-04T04:55:09;3.30;;;3.00;;
495;SDS011;39559;48.630;9.162;2023-02-04T04:57:35;7.13;;;3.37;;
495;SDS011;39559;48.630;9.162;2023-02-04T05:00:00;6.43;;;3.20;;
495;SDS011;39559;48.630;9.162;2023-02-04T05:02:26;5.10;;;3.07;;
495;SDS011;39559;48.630;9.162;2023-02-04T05:07:01;5.68;;;3.33;;
495;SDS011;39559;48.630;9.162;2023-02-04T05:09:26;10.37;;;3.30;;
495;SDS011;39559;48.630;9.162;2023-02-04T05:11:52;6.73;;;3.40;;
495;SDS011;39559;48.630;9.162;2023-02-04T05:14:17;3.70;;;3.30;;
495;SDS011;39559;48.630;9.162;2023-02-04T05:16:43;4.53;;;3.17;;
495;SDS011;39559;48.630;9.162;2023-02-04T05:19:09;6.33;;;4.17;;
495;SDS011;39559;48.630;9.162;2023-02-04T05:21:34;4.93;;;4.40;;
495;SDS011;39559;48.630;9.162;2023-02-04T05:23:59;9.23;;;5.90;;
495;SDS011;39559;48.630;9.162;2023-02-04T05:26:25;10.20;;;7.50;;
495;SDS011;39559;48.630;9.162;2023-02-04T05:31:01;10.55;;;5.70;;
495;SDS011;39559;48.630;9.162;2023-02-04T05:33:26;5.17;;;4.47;;
495;SDS011;39559;48.630;9.162;2023-02-04T05:35:52;5.00;;;4.50;;
495;SDS011;39559;48.630;9.162;2023-02-04T05:38:17;6.20;;;4.60;;
495;SDS011;39559;48.630;9.162;2023-02-04T05:40:42;7.13;;;5.00;;
495;SDS011;39559;48.630;9.162;2023-02-04T05:43:08;5.00;;;4.50;;
495;SDS011;39559;48.630;9.162;2023-02-04T05:45:33;9.10;;;4.53;;
495;SDS011;39559;48.630;9.162;2023-02-04T05:47:59;6.17;;;5.30;;
495;SDS011;39559;48.630;9.162;2023-02-04T05:50:24;6.27;;;5.20;;
495;SDS011;39559;48.630;9.162;2023-02-04T05:55:00;7.05;;;4.50;;
495;SDS011;39559;48.630;9.162;2023-02-04T05:57:26;5.00;;;4.50;;
495;SDS011;39559;48.630;9.162;2023-02-04T05:59:51;5.83;;;5.00;;
495;SDS011;39559;48.630;9.162;2023-02-04T06:02:17;7.30;;;4.80;;
495;SDS011;39559;48.630;9.162;2023-02-04T06:04:42;5.03;;;4.53;;
495;SDS011;39559;48.630;9.162;2023-02-04T06:07:08;6.13;;;4.37;;
495;SDS011;39559;48.630;9.162;2023-02-04T06:09:33;5.30;;;4.80;;
495;SDS011;39559;48.630;9.162;2023-02-04T06:11:58;5.30;;;4.80;;
495;SDS011;39559;48.630;9.162;2023-02-04T06:14:24;7.40;;;4.90;;
495;SDS011;39559;48.630;9.162;2023-02-04T06:19:00;5.82;;;4.93;;
495;SDS011;39559;48.630;9.162;2023-02-04T06:21:25;7.53;;;5.50;;
495;SDS011;39559;48.630;9.162;2023-02-04T06:23:51;6.30;;;5.37;;
495;SDS011;39559;48.630;9.162;2023-02-04T06:26:16;9.93;;;6.00;;
495;SDS011;39559;48.630;9.162;2023-02-04T06:28:42;9.10;;;6.20;;
495;SDS011;39559;48.630;9.162;2023-02-04T06:31:07;6.10;;;5.50;;
495;SDS011;39559;48.630;9.162;2023-02-04T06:33:33;5.80;;;5.20;;
495;SDS011;39559;48.630;9.162;2023-02-04T06:36:01;9.50;;;5.90;;
495;SDS011;39559;48.630;9.162;2023-02-04T06:38:27;9.45;;;6.00;;
495;SDS011;39559;48.630;9.162;2023-02-04T06:42:59;8.95;;;5.93;;
495;SDS011;39559;48.630;9.162;2023-02-04T06:45:25;8.10;;;5.70;;
495;SDS011;39559;48.630;9.162;2023-02-04T06:47:50;9.17;;;6.10;;
495;SDS011;39559;48.630;9.162;2023-02-04T06:50:16;10.93;;;5.63;;
495;SDS011;39559;48.630;9.162;2023-02-04T06:52:45;8.80;;;5.85;;
495;SDS011;39559;48.630;9.162;2023-02-04T06:55:11;9.43;;;5.78;;
495;SDS011;39559;48.630;9.162;2023-02-04T06:57:38;8.55;;;5.60;;
495;SDS011;39559;48.630;9.162;2023-02-04T07:00:04;7.80;;;5.60;;
495;SDS011;39559;48.630;9.162;2023-02-04T07:02:31;12.98;;;6.15;;
495;SDS011;39559;48.630;9.162;2023-02-04T07:06:58;10.10;;;5.95;;
495;SDS011;39559;48.630;9.162;2023-02-04T07:09:24;9.40;;;7.53;;
495;SDS011;39559;48.630;9.162;2023-02-04T07:11:50;8.33;;;5.77;;
495;SDS011;39559;48.630;9.162;2023-02-04T07:14:15;5.63;;;5.03;;
495;SDS011;39559;48.630;9.162;2023-02-04T07:16:41;11.07;;;6.20;;
495;SDS011;39559;48.630;9.162;2023-02-04T07:19:06;8.93;;;6.23;;
495;SDS011;39559;48.630;9.162;2023-02-04T07:21:32;12.50;;;6.17;;
495;SDS011;39559;48.630;9.162;2023-02-04T07:23:57;9.90;;;6.03;;
495;SDS011;39559;48.630;9.162;2023-02-04T07:26:23;6.70;;;5.77;;
495;SDS011;39559;48.630;9.162;2023-02-04T07:30:59;9.77;;;8.00;;
495;SDS011;39559;48.630;9.162;2023-02-04T07:33:24;10.90;;;7.80;;
495;SDS011;39559;48.630;9.162;2023-02-04T07:35:50;14.70;;;7.30;;
495;SDS011;39559;48.630;9.162;2023-02-04T07:38:15;13.43;;;7.30;;
495;SDS011;39559;48.630;9.162;2023-02-04T07:40:41;12.50;;;8.30;;
495;SDS011;39559;48.630;9.162;2023-02-04T07:43:06;16.53;;;8.80;;
495;SDS011;39559;48.630;9.162;2023-02-04T07:45:32;10.73;;;7.17;;
495;SDS011;39559;48.630;9.162;2023-02-04T07:47:57;10.47;;;7.80;;
495;SDS011;39559;48.630;9.162;2023-02-04T07:50:23;13.73;;;7.60;;
495;SDS011;39559;48.630;9.162;2023-02-04T07:54:58;11.73;;;7.78;;
495;SDS011;39559;48.630;9.162;2023-02-04T07:57:24;11.30;;;7.60;;
495;SDS011;39559;48.630;9.162;2023-02-04T07:59:49;10.40;;;7.80;;
495;SDS011;39559;48.630;9.162;2023-02-04T08:02:15;15.25;;;8.27;;
495;SDS011;39559;48.630;9.162;2023-02-04T08:04:41;13.27;;;7.83;;
495;SDS011;39559;48.630;9.162;2023-02-04T08:07:06;12.23;;;7.40;;
495;SDS011;39559;48.630;9.162;2023-02-04T08:09:32;18.73;;;7.70;;
495;SDS011;39559;48.630;9.162;2023-02-04T08:11:58;12.80;;;7.60;;
495;SDS011;39559;48.630;9.162;2023-02-04T08:14:24;11.63;;;7.83;;
495;SDS011;39559;48.630;9.162;2023-02-04T08:18:58;12.07;;;7.80;;
495;SDS011;39559;48.630;9.162;2023-02-04T08:21:24;16.37;;;7.90;;
495;SDS011;39559;48.630;9.162;2023-02-04T08:23:49;10.07;;;7.93;;
495;SDS011;39559;48.630;9.162;2023-02-04T08:26:15;16.63;;;7.77;;
495;SDS011;39559;48.630;9.162;2023-02-04T08:28:40;14.87;;;7.63;;
495;SDS011;39559;48.630;9.162;2023-02-04T08:31:06;19.40;;;7.80;;
495;SDS011;39559;48.630;9.162;2023-02-04T08:33:35;12.40;;;7.15;;
495;SDS011;39559;48.630;9.162;2023-02-04T08:36:02;16.00;;;7.15;;
495;SDS011;39559;48.630;9.162;2023-02-04T08:38:28;15.47;;;6.10;;
495;SDS011;39559;48.630;9.162;2023-02-04T08:42:58;14.80;;;6.70;;
495;SDS011;39559;48.630;9.162;2023-02-04T08:45:24;8.73;;;6.50;;
495;SDS011;39559;48.630;9.162;2023-02-04T08:47:49;12.80;;;6.30;;
495;SDS011;39559;48.630;9.162;2023-02-04T08:50:15;15.83;;;6.33;;
495;SDS011;39559;48.630;9.162;2023-02-04T08:52:41;11.93;;;5.90;;
495;SDS011;39559;48.630;9.162;2023-02-04T08:55:06;12.73;;;6.87;;
495;SDS011;39559;48.630;9.162;2023-02-04T08:57:32;10.70;;;5.88;;
495;SDS011;39559;48.630;9.162;2023-02-04T08:59:59;11.57;;;6.40;;
495;SDS011;39559;48.630;9.162;2023-02-04T09:02:24;11.47;;;6.00;;
495;SDS011;39559;48.630;9.162;2023-02-04T09:06:57;14.43;;;6.30;;
495;SDS011;39559;48.630;9.162;2023-02-04T09:09:22;9.87;;;5.60;;
495;SDS011;39559;48.630;9.162;2023-02-04T09:11:48;9.57;;;5.50;;
495;SDS011;39559;48.630;9.162;2023-02-04T09:14:13;6.87;;;5.03;;
495;SDS011;39559;48.630;9.162;2023-02-04T09:16:39;7.77;;;4.70;;
495;SDS011;39559;48.630;9.162;2023-02-04T09:19:04;4.63;;;4.00;;
495;SDS011;39559;48.630;9.162;2023-02-04T09:21:33;8.65;;;4.65;;
495;SDS011;39559;48.630;9.162;2023-02-04T09:23:58;7.87;;;4.47;;
495;SDS011;39559;48.630;9.162;2023-02-04T09:26:24;9.07;;;4.47;;
495;SDS011;39559;48.630;9.162;2023-02-04T09:30:58;6.00;;;4.22;;
495;SDS011;39559;48.630;9.162;2023-02-04T09:33:24;11.25;;;4.63;;
495;SDS011;39559;48.630;9.162;2023-02-04T09:35:49;6.10;;;5.00;;
495;SDS011;39559;48.630;9.162;2023-02-04T09:38:15;4.37;;;3.97;;
495;SDS011;39559;48.630;9.162;2023-02-04T09:40:41;13.23;;;3.40;;
495;SDS011;39559;48.630;9.162;2023-02-04T09:43:16;17.13;;;4.78;;
495;SDS011;39559;48.630;9.162;2023-02-04T09:45:46;7.10;;;4.38;;
495;SDS011;39559;48.630;9.162;2023-02-04T09:48:13;10.80;;;4.78;;
495;SDS011;39559;48.630;9.162;2023-02-04T09:50:39;6.45;;;4.05;;
495;SDS011;39559;48.630;9.162;2023-02-04T09:54:57;5.72;;;3.28;;
495;SDS011;39559;48.630;9.162;2023-02-04T09:57:24;6.03;;;4.47;;
495;SDS011;39559;48.630;9.162;2023-02-04T09:59:49;4.40;;;3.60;;
495;SDS011;39559;48.630;9.162;2023-02-04T10:02:24;4.22;;;3.63;;
495;SDS011;39559;48.630;9.162;2023-02-04T10:04:51;6.50;;;2.90;;
495;SDS011;39559;48.630;9.162;2023-02-04T10:07:21;4.47;;;3.33;;
495;SDS011;39559;48.630;9.162;2023-02-04T10:09:49;5.10;;;4.03;;
495;SDS011;39559;48.630;9.162;2023-02-04T10:12:16;7.45;;;3.33;;
495;SDS011;39559;48.630;9.162;2023-02-04T10:14:42;8.50;;;4.37;;
495;SDS011;39559;48.630;9.162;2023-02-04T10:19:01;3.95;;;3.53;;
495;SDS011;39559;48.630;9.162;2023-02-04T10:21:32;3.53;;;3.20;;
495;SDS011;39559;48.630;9.162;2023-02-04T10:24:01;2.58;;;2.38;;
495;SDS011;39559;48.630;9.162;2023-02-04T10:26:30;9.73;;;2.47;;
495;SDS011;39559;48.630;9.162;2023-02-04T10:28:57;3.20;;;2.70;;
495;SDS011;39559;48.630;9.162;2023-02-04T10:31:32;4.68;;;2.85;;
495;SDS011;39559;48.630;9.162;2023-02-04T10:34:05;5.40;;;2.92;;
495;SDS011;39559;48.630;9.162;2023-02-04T10:36:35;4.95;;;3.20;;
495;SDS011;39559;48.630;9.162;2023-02-04T10:39:02;8.83;;;3.77;;
495;SDS011;39559;48.630;9.162;2023-02-04T10:42:57;6.15;;;2.80;;
495;SDS011;39559;48.630;9.162;2023-02-04T10:45:24;4.45;;;2.50;;
495;SDS011;39559;48.630;9.162;2023-02-04T10:47:52;5.70;;;4.68;;
495;SDS011;39559;48.630;9.162;2023-02-04T10:50:20;3.70;;;2.70;;
495;SDS011;39559;48.630;9.162;2023-02-04T10:52:57;5.35;;;3.40;;
495;SDS011;39559;48.630;9.162;2023-02-04T10:55:42;7.35;;;3.08;;
495;SDS011;39559;48.630;9.162;2023-02-04T10:58:12;7.20;;;3.90;;
495;SDS011;39559;48.630;9.162;2023-02-04T11:00:41;3.95;;;2.40;;
495;SDS011;39559;48.630;9.162;2023-02-04T11:03:11;8.37;;;3.27;;
495;SDS011;39559;48.630;9.162;2023-02-04T11:06:56;5.90;;;2.60;;
495;SDS011;39559;48.630;9.162;2023-02-04T11:09:23;4.55;;;2.78;;
495;SDS011;39559;48.630;9.162;2023-02-04T11:11:49;4.27;;;3.40;;
495;SDS011;39559;48.630;9.162;2023-02-04T11:14:26;4.65;;;2.50;;
495;SDS011;39559;48.630;9.162;2023-02-04T11:16:53;3.40;;;2.55;;
495;SDS011;39559;48.630;9.162;2023-02-04T11:19:31;6.13;;;3.00;;
495;SDS011;39559;48.630;9.162;2023-02-04T11:22:07;3.97;;;2.83;;
495;SDS011;39559;48.630;9.162;2023-02-04T11:24:49;5.53;;;3.25;;
495;SDS011;39559;48.630;9.162;2023-02-04T11:27:24;5.63;;;3.28;;
495;SDS011;39559;48.630;9.162;2023-02-04T11:31:02;6.93;;;3.03;;
495;SDS011;39559;48.630;9.162;2023-02-04T11:33:39;3.45;;;2.95;;
495;SDS011;39559;48.630;9.162;2023-02-04T11:36:07;5.65;;;4.50;;
495;SDS011;39559;48.630;9.162;2023-02-04T11:38:36;4.75;;;3.28;;
495;SDS011;39559;48.630;9.162;2023-02-04T11:41:02;6.28;;;2.90;;
495;SDS011;39559;48.630;9.162;2023-02-04T11:43:31;8.48;;;3.47;;
495;SDS011;39559;48.630;9.162;2023-02-04T11:46:09;6.25;;;3.67;;
495;SDS011;39559;48.630;9.162;2023-02-04T11:48:39;7.70;;;3.63;;
495;SDS011;39559;48.630;9.162;2023-02-04T11:51:13;7.40;;;3.33;;
495;SDS011;39559;48.630;9.162;2023-02-04T11:54:58;6.28;;;4.45;;
495;SDS011;39559;48.630;9.162;2023-02-04T11:57:25;5.95;;;2.90;;
495;SDS011;39559;48.630;9.162;2023-02-04T11:59:51;4.53;;;2.95;;
495;SDS011;39559;48.630;9.162;2023-02-04T12:02:18;3.70;;;3.13;;
495;SDS011;39559;48.630;9.162;2023-02-04T12:04:50;3.95;;;2.83;;
495;SDS011;39559;48.630;9.162;2023-02-04T12:07:37;9.43;;;3.38;;
495;SDS011;39559;48.630;9.162;2023-02-04T12:10:14;3.80;;;2.97;;
495;SDS011;39559;48.630;9.162;2023-02-04T12:12:51;5.75;;;3.50;;
495;SDS011;39559;48.630;9.162;2023-02-04T12:15:22;6.40;;;3.65;;
495;SDS011;39559;48.630;9.162;2023-02-04T12:18:55;3.97;;;2.83;;
495;SDS011;39559;48.630;9.162;2023-02-04T12:21:20;3.63;;;2.80;;
495;SDS011;39559;48.630;9.162;2023-02-04T12:23:46;6.87;;;3.13;;
495;SDS011;39559;48.630;9.162;2023-02-04T12:26:11;6.30;;;3.30;;
495;SDS011;39559;48.630;9.162;2023-02-04T12:28:37;5.10;;;3.20;;
495;SDS011;39559;48.630;9.162;2023-02-04T12:31:02;5.03;;;3.70;;
495;SDS011;39559;48.630;9.162;2023-02-04T12:33:28;6.03;;;3.10;;
495;SDS011;39559;48.630;9.162;2023-02-04T12:35:54;9.93;;;3.67;;
495;SDS011;39559;48.630;9.162;2023-02-04T12:38:19;6.67;;;3.43;;
495;SDS011;39559;48.630;9.162;2023-02-04T12:42:54;5.47;;;3.33;;
495;SDS011;39559;48.630;9.162;2023-02-04T12:45:20;4.10;;;3.10;;
495;SDS011;39559;48.630;9.162;2023-02-04T12:47:45;5.40;;;3.00;;
495;SDS011;39559;48.630;9.162;2023-02-04T12:50:12;6.60;;;3.63;;
495;SDS011;39559;48.630;9.162;2023-02-04T12:52:39;3.95;;;3.42;;
495;SDS011;39559;48.630;9.162;2023-02-04T12:55:05;3.87;;;3.17;;
495;SDS011;39559;48.630;9.162;2023-02-04T12:57:32;5.18;;;3.33;;
495;SDS011;39559;48.630;9.162;2023-02-04T12:59:58;3.65;;;3.35;;
495;SDS011;39559;48.630;9.162;2023-02-04T13:02:26;4.00;;;2.75;;
495;SDS011;39559;48.630;9.162;2023-02-04T13:06:53;10.75;;;3.85;;
495;SDS011;39559;48.630;9.162;2023-02-04T13:09:18;4.10;;;2.70;;
495;SDS011;39559;48.630;9.162;2023-02-04T13:11:44;5.27;;;2.80;;
495;SDS011;39559;48.630;9.162;2023-02-04T13:14:09;3.60;;;2.80;;
495;SDS011;39559;48.630;9.162;2023-02-04T13:16:35;6.20;;;2.57;;
495;SDS011;39559;48.630;9.162;2023-02-04T13:19:00;10.17;;;3.00;;
495;SDS011;39559;48.630;9.162;2023-02-04T13:21:26;3.27;;;2.30;;
495;SDS011;39559;48.630;9.162;2023-02-04T13:23:51;3.40;;;2.40;;
495;SDS011;39559;48.630;9.162;2023-02-04T13:26:17;5.70;;;3.20;;
495;SDS011;39559;48.630;9.162;2023-02-04T13:30:53;3.53;;;3.00;;
495;SDS011;39559;48.630;9.162;2023-02-04T13:33:18;3.20;;;2.40;;
495;SDS011;39559;48.630;9.162;2023-02-04T13:35:44;4.50;;;3.07;;
495;SDS011;39559;48.630;9.162;2023-02-04T13:38:09;4.70;;;2.70;;
495;SDS011;39559;48.630;9.162;2023-02-04T13:40:35;5.33;;;3.97;;
495;SDS011;39559;48.630;9.162;2023-02-04T13:43:00;5.70;;;3.03;;
495;SDS011;39559;48.630;9.162;2023-02-04T13:45:26;4.47;;;3.03;;
495;SDS011;39559;48.630;9.162;2023-02-04T13:47:51;4.90;;;2.80;;
495;SDS011;39559;48.630;9.162;2023-02-04T13:50:17;2.80;;;2.60;;
495;SDS011;39559;48.630;9.162;2023-02-04T13:54:52;247.07;;;47.35;;
495;SDS011;39559;48.630;9.162;2023-02-04T13:57:19;51.67;;;10.77;;
495;SDS011;39559;48.630;9.162;2023-02-04T13:59:45;57.85;;;21.50;;
495;SDS011;39559;48.630;9.162;2023-02-04T14:02:10;67.50;;;42.13;;
495;SDS011;39559;48.630;9.162;2023-02-04T14:04:36;79.77;;;32.40;;
495;SDS011;39559;48.630;9.162;2023-02-04T14:07:01;76.33;;;32.83;;
495;SDS011;39559;48.630;9.162;2023-02-04T14:09:26;82.13;;;45.47;;
495;SDS011;39559;48.630;9.162;2023-02-04T14:11:52;87.07;;;39.07;;
495;SDS011;39559;48.630;9.162;2023-02-04T14:14:17;78.10;;;41.63;;
495;SDS011;39559;48.630;9.162;2023-02-04T14:18:51;77.82;;;40.70;;
495;SDS011;39559;48.630;9.162;2023-02-04T14:21:16;83.03;;;42.57;;
495;SDS011;39559;48.630;9.162;2023-02-04T14:23:42;81.30;;;43.60;;
495;SDS011;39559;48.630;9.162;2023-02-04T14:26:07;83.80;;;49.17;;
495;SDS011;39559;48.630;9.162;2023-02-04T14:28:33;87.85;;;47.30;;
495;SDS011;39559;48.630;9.162;2023-02-04T14:30:59;85.40;;;47.10;;
495;SDS011;39559;48.630;9.162;2023-02-04T14:33:24;81.93;;;45.87;;
495;SDS011;39559;48.630;9.162;2023-02-04T14:35:50;83.90;;;46.20;;
495;SDS011;39559;48.630;9.162;2023-02-04T14:38:15;86.53;;;47.53;;
495;SDS011;39559;48.630;9.162;2023-02-04T14:42:50;86.13;;;43.70;;
495;SDS011;39559;48.630;9.162;2023-02-04T14:45:16;93.00;;;44.83;;
495;SDS011;39559;48.630;9.162;2023-02-04T14:47:42;90.25;;;39.83;;
495;SDS011;39559;48.630;9.162;2023-02-04T14:50:10;79.17;;;38.27;;
495;SDS011;39559;48.630;9.162;2023-02-04T14:52:38;92.60;;;40.75;;
495;SDS011;39559;48.630;9.162;2023-02-04T14:55:03;79.47;;;40.10;;
495;SDS011;39559;48.630;9.162;2023-02-04T14:57:29;79.30;;;41.10;;
495;SDS011;39559;48.630;9.162;2023-02-04T14:59:54;85.30;;;43.77;;
495;SDS011;39559;48.630;9.162;2023-02-04T15:02:20;80.60;;;47.37;;
495;SDS011;39559;48.630;9.162;2023-02-04T15:06:49;90.55;;;50.95;;
495;SDS011;39559;48.630;9.162;2023-02-04T15:09:18;87.20;;;53.40;;
495;SDS011;39559;48.630;9.162;2023-02-04T15:11:43;86.73;;;53.97;;
495;SDS011;39559;48.630;9.162;2023-02-04T15:14:08;86.30;;;55.70;;
495;SDS011;39559;48.630;9.162;2023-02-04T15:16:34;1999.90;;;999.90;;
495;SDS011;39559;48.630;9.162;2023-02-04T15:18:59;1999.90;;;999.90;;
495;SDS011;39559;48.630;9.162;2023-02-04T15:21:25;1999.90;;;999.90;;
495;SDS011;39559;48.630;9.162;2023-02-04T15:23:51;1999.90;;;999.90;;
495;SDS011;39559;48.630;9.162;2023-02-04T15:26:17;1999.90;;;999.90;;
495;SDS011;39559;48.630;9.162;2023-02-04T15:30:49;1999.90;;;999.90;;
495;SDS011;39559;48.630;9.162;2023-02-04T15:33:14;1999.90;;;999.90;;
495;SDS011;39559;48.630;9.162;2023-02-04T15:35:41;1999.90;;;999.90;;
495;SDS011;39559;48.630;9.162;2023-02-04T15:38:07;1999.90;;;999.90;;
495;SDS011;39559;48.630;9.162;2023-02-04T15:40:33;1999.90;;;999.90;;
495;SDS011;39559;48.630;9.162;2023-02-04T15:42:58;1999.90;;;999.90;;
495;SDS011;39559;48.630;9.162;2023-02-04T15:45:23;1999.90;;;999.90;;
495;SDS011;39559;48.630;9.162;2023-02-04T15:47:49;1999.90;;;999.90;;
495;SDS011;39559;48.630;9.162;2023-02-04T15:50:15;1999.90;;;999.90;;
495;SDS011;39559;48.630;9.162;2023-02-04T15:54:48;1999.90;;;999.90;;
495;SDS011;39559;48.630;9.162;2023-02-04T15:57:13;1999.90;;;999.90;;
495;SDS011;39559;48.630;9.162;2023-02-04T15:59:39;1999.90;;;999.90;;
495;SDS011;39559;48.630;9.162;2023-02-04T16:02:04;1999.90;;;999.90;;
495;SDS011;39559;48.630;9.162;2023-02-04T16:04:30;1999.90;;;999.90;;
495;SDS011;39559;48.630;9.162;2023-02-04T16:06:55;1999.90;;;999.90;;
495;SDS011;39559;48.630;9.162;2023-02-04T16:09:21;1999.90;;;999.90;;
495;SDS011;39559;48.630;9.162;2023-02-04T16:11:47;1999.90;;;999.90;;
495;SDS011;39559;48.630;9.162;2023-02-04T16:14:12;1999.90;;;999.90;;
495;SDS011;39559;48.630;9.162;2023-02-04T16:18:47;4.90;;;3.03;;
495;SDS011;39559;48.630;9.162;2023-02-04T16:21:12;3.83;;;2.50;;
495;SDS011;39559;48.630;9.162;2023-02-04T16:23:38;2.47;;;2.20;;
495;SDS011;39559;48.630;9.162;2023-02-04T16:26:03;5.10;;;2.83;;